createdAt,value
2018-04-09T00:00:53.120Z,4.07
2018-04-09T00:03:19.509Z,3.90
2018-04-09T00:05:45.829Z,3.90
2018-04-09T00:08:12.198Z,3.80
2018-04-09T00:10:38.591Z,3.70
2018-04-09T00:13:04.913Z,3.60
2018-04-09T00:15:31.226Z,4.20
2018-04-09T00:17:57.618Z,3.80
2018-04-09T00:20:24.037Z,4.60
2018-04-09T00:22:50.361Z,4.07
2018-04-09T00:25:16.747Z,4.30
2018-04-09T00:27:43.181Z,3.47
2018-04-09T00:30:09.602Z,4.03
2018-04-09T00:32:36.001Z,3.77
2018-04-09T00:35:02.403Z,3.37
2018-04-09T00:37:28.809Z,4.13
2018-04-09T00:39:55.159Z,3.50
2018-04-09T00:42:21.539Z,3.90
2018-04-09T00:44:47.922Z,4.00
2018-04-09T00:47:14.301Z,4.00
2018-04-09T00:49:40.718Z,4.40
2018-04-09T00:52:07.038Z,4.10
2018-04-09T00:54:33.389Z,4.63
2018-04-09T00:56:59.715Z,3.97
2018-04-09T00:59:26.070Z,4.33
2018-04-09T01:01:52.421Z,3.57
2018-04-09T01:04:18.814Z,4.60
2018-04-09T01:06:45.198Z,3.80
2018-04-09T01:09:11.556Z,4.70
2018-04-09T01:11:37.917Z,4.20
2018-04-09T01:14:04.336Z,3.80
2018-04-09T01:16:30.681Z,5.00
2018-04-09T01:18:57.012Z,4.03
2018-04-09T01:21:23.324Z,3.73
2018-04-09T01:23:49.744Z,4.60
2018-04-09T01:26:16.077Z,4.57
2018-04-09T01:28:42.398Z,4.40
2018-04-09T01:31:08.798Z,4.30
2018-04-09T01:33:35.201Z,5.00
2018-04-09T01:36:01.547Z,4.37
2018-04-09T01:38:27.938Z,4.20
2018-04-09T01:40:54.306Z,4.30
2018-04-09T01:43:20.665Z,4.07
2018-04-09T01:45:47.099Z,4.80
2018-04-09T01:48:13.538Z,4.30
2018-04-09T01:50:39.882Z,4.37
2018-04-09T01:53:06.201Z,4.80
2018-04-09T01:55:32.542Z,4.07
2018-04-09T01:57:58.932Z,3.77
2018-04-09T02:00:25.274Z,6.40
2018-04-09T02:02:51.647Z,3.97
2018-04-09T02:05:17.977Z,4.43
2018-04-09T02:07:44.310Z,4.60
2018-04-09T02:10:10.688Z,4.07
2018-04-09T02:12:37.037Z,4.30
2018-04-09T02:15:03.478Z,5.13
2018-04-09T02:17:29.921Z,4.30
2018-04-09T02:19:56.297Z,3.70
2018-04-09T02:22:22.778Z,4.37
2018-04-09T02:24:49.169Z,4.10
2018-04-09T02:27:15.521Z,4.30
2018-04-09T02:29:41.949Z,4.03
2018-04-09T02:32:08.282Z,4.17
2018-04-09T02:34:34.635Z,4.20
2018-04-09T02:37:01.119Z,3.80
2018-04-09T02:39:27.459Z,4.03
2018-04-09T02:41:53.859Z,3.70
2018-04-09T02:44:20.276Z,5.60
2018-04-09T02:46:46.612Z,4.13
2018-04-09T02:49:12.962Z,4.43
2018-04-09T02:51:39.541Z,4.37
2018-04-09T02:54:05.870Z,3.87
2018-04-09T02:56:32.205Z,4.33
2018-04-09T02:58:58.593Z,3.77
2018-04-09T03:01:25.022Z,4.10
2018-04-09T03:03:51.350Z,4.20
2018-04-09T03:06:17.674Z,4.00
2018-04-09T03:08:44.044Z,4.10
2018-04-09T03:11:10.438Z,4.40
2018-04-09T03:13:36.879Z,3.90
2018-04-09T03:16:03.318Z,3.90
2018-04-09T03:18:29.647Z,4.30
2018-04-09T03:20:55.977Z,4.07
2018-04-09T03:23:22.355Z,4.23
2018-04-09T03:25:48.695Z,4.07
2018-04-09T03:28:15.013Z,4.23
2018-04-09T03:30:41.378Z,3.63
2018-04-09T03:33:07.747Z,4.60
2018-04-09T03:35:34.082Z,3.97
2018-04-09T03:38:00.396Z,4.60
2018-04-09T03:40:26.732Z,4.40
2018-04-09T03:42:53.129Z,3.90
2018-04-09T03:45:19.471Z,3.83
2018-04-09T03:47:45.869Z,4.20
2018-04-09T03:50:12.244Z,4.13
2018-04-09T03:52:38.589Z,4.63
2018-04-09T03:55:04.915Z,3.77
2018-04-09T03:57:31.287Z,4.13
2018-04-09T03:59:57.613Z,4.10
2018-04-09T04:02:23.992Z,4.00
2018-04-09T04:04:50.377Z,3.93
2018-04-09T04:07:16.729Z,3.53
2018-04-09T04:09:43.096Z,4.00
2018-04-09T04:12:09.586Z,3.63
2018-04-09T04:14:35.928Z,3.60
2018-04-09T04:17:02.554Z,3.43
2018-04-09T04:19:28.976Z,3.90
2018-04-09T04:21:55.299Z,4.60
2018-04-09T04:24:21.665Z,3.80
2018-04-09T04:26:48.206Z,5.03
2018-04-09T04:29:14.568Z,3.90
2018-04-09T04:31:40.888Z,3.77
2018-04-09T04:34:07.245Z,3.93
2018-04-09T04:36:33.573Z,4.20
2018-04-09T04:38:59.994Z,4.00
2018-04-09T04:41:26.333Z,3.83
2018-04-09T04:43:52.749Z,3.90
2018-04-09T04:46:19.151Z,4.23
2018-04-09T04:48:45.564Z,3.87
2018-04-09T04:51:11.879Z,3.87
2018-04-09T04:53:38.259Z,3.90
2018-04-09T04:56:04.615Z,3.80
2018-04-09T04:58:30.948Z,3.93
2018-04-09T05:00:57.355Z,4.20
2018-04-09T05:03:23.774Z,3.83
2018-04-09T05:05:50.124Z,3.80
2018-04-09T05:08:16.525Z,3.60
2018-04-09T05:10:42.872Z,4.87
2018-04-09T05:13:09.223Z,3.70
2018-04-09T05:15:35.543Z,3.87
2018-04-09T05:18:02.015Z,3.70
2018-04-09T05:20:28.470Z,3.93
2018-04-09T05:22:54.856Z,4.10
2018-04-09T05:25:21.227Z,4.80
2018-04-09T05:27:47.620Z,4.00
2018-04-09T05:30:13.968Z,3.93
2018-04-09T05:32:40.358Z,3.67
2018-04-09T05:35:06.697Z,3.83
2018-04-09T05:37:33.065Z,3.43
2018-04-09T05:39:59.426Z,3.80
2018-04-09T05:42:25.749Z,4.00
2018-04-09T05:44:52.159Z,3.80
2018-04-09T05:47:18.514Z,4.00
2018-04-09T05:49:44.866Z,4.00
2018-04-09T05:52:11.251Z,4.10
2018-04-09T05:54:37.603Z,3.93
2018-04-09T05:57:03.948Z,3.87
2018-04-09T05:59:30.332Z,3.80
2018-04-09T06:01:56.645Z,4.00
2018-04-09T06:04:23.021Z,3.80
2018-04-09T06:06:49.350Z,3.70
2018-04-09T06:09:15.749Z,4.23
2018-04-09T06:11:42.097Z,3.80
2018-04-09T06:14:08.560Z,3.83
2018-04-09T06:16:34.882Z,3.80
2018-04-09T06:19:01.261Z,4.13
2018-04-09T06:21:27.603Z,4.47
2018-04-09T06:23:53.948Z,3.67
2018-04-09T06:26:20.288Z,3.77
2018-04-09T06:28:46.655Z,3.77
2018-04-09T06:31:13.030Z,3.97
2018-04-09T06:33:39.373Z,3.77
2018-04-09T06:36:05.705Z,4.33
2018-04-09T06:38:32.130Z,3.60
2018-04-09T06:40:58.506Z,4.70
2018-04-09T06:43:24.861Z,4.90
2018-04-09T06:45:51.195Z,4.47
2018-04-09T06:48:17.526Z,3.97
2018-04-09T06:50:43.952Z,3.60
2018-04-09T06:53:10.318Z,4.20
2018-04-09T06:55:36.650Z,3.93
2018-04-09T06:58:03.038Z,4.50
2018-04-09T07:00:29.357Z,4.30
2018-04-09T07:02:55.729Z,4.70
2018-04-09T07:05:22.102Z,3.70
2018-04-09T07:07:48.504Z,4.73
2018-04-09T07:10:14.874Z,4.33
2018-04-09T07:12:41.252Z,4.13
2018-04-09T07:15:07.584Z,4.60
2018-04-09T07:17:33.963Z,3.90
2018-04-09T07:20:00.420Z,4.47
2018-04-09T07:22:26.771Z,4.77
2018-04-09T07:24:53.121Z,4.30
2018-04-09T07:27:19.437Z,4.03
2018-04-09T07:29:45.757Z,4.53
2018-04-09T07:32:12.098Z,4.30
2018-04-09T07:34:38.582Z,4.30
2018-04-09T07:37:04.902Z,4.53
2018-04-09T07:39:31.267Z,4.00
2018-04-09T07:41:57.648Z,4.60
2018-04-09T07:44:23.991Z,4.63
2018-04-09T07:46:50.411Z,4.67
2018-04-09T07:49:16.737Z,4.00
2018-04-09T07:51:43.124Z,4.00
2018-04-09T07:54:09.534Z,4.27
2018-04-09T07:56:35.926Z,3.73
2018-04-09T07:59:02.277Z,4.70
2018-04-09T08:01:28.622Z,4.40
2018-04-09T08:03:54.941Z,4.20
2018-04-09T08:06:21.322Z,4.57
2018-04-09T08:08:47.681Z,4.50
2018-04-09T08:11:14.046Z,4.17
2018-04-09T08:13:40.504Z,4.80
2018-04-09T08:16:06.857Z,4.20
2018-04-09T08:18:33.315Z,3.80
2018-04-09T08:20:59.646Z,4.90
2018-04-09T08:23:26.018Z,3.73
2018-04-09T08:25:52.365Z,4.60
2018-04-09T08:28:18.768Z,4.60
2018-04-09T08:30:45.114Z,4.60
2018-04-09T08:33:11.430Z,4.43
2018-04-09T08:35:37.839Z,4.37
2018-04-09T08:38:04.174Z,4.23
2018-04-09T08:40:31.518Z,3.97
2018-04-09T08:42:57.839Z,4.20
2018-04-09T08:45:24.175Z,4.20
2018-04-09T08:47:50.564Z,3.97
2018-04-09T08:50:16.946Z,4.37
2018-04-09T08:52:43.338Z,4.37
2018-04-09T08:55:09.750Z,4.37
2018-04-09T08:57:36.122Z,4.40
2018-04-09T09:00:02.460Z,4.50
2018-04-09T09:02:28.887Z,4.37
2018-04-09T09:04:55.222Z,4.53
2018-04-09T09:07:21.643Z,4.80
2018-04-09T09:09:47.981Z,4.30
2018-04-09T09:12:14.317Z,4.83
2018-04-09T09:14:40.690Z,4.30
2018-04-09T09:17:07.009Z,5.60
2018-04-09T09:19:33.401Z,4.27
2018-04-09T09:21:59.749Z,4.63
2018-04-09T09:24:26.107Z,4.40
2018-04-09T09:26:52.469Z,4.27
2018-04-09T09:29:18.877Z,3.80
2018-04-09T09:31:45.267Z,5.47
2018-04-09T09:34:11.610Z,5.03
2018-04-09T09:36:37.965Z,4.73
2018-04-09T09:39:04.341Z,4.80
2018-04-09T09:41:30.717Z,4.97
2018-04-09T09:43:57.059Z,3.83
2018-04-09T09:46:23.379Z,4.50
2018-04-09T09:48:49.752Z,4.40
2018-04-09T09:51:16.120Z,4.23
2018-04-09T09:53:42.467Z,4.23
2018-04-09T09:56:08.878Z,5.13
2018-04-09T09:58:35.217Z,4.20
2018-04-09T10:01:01.621Z,4.63
2018-04-09T10:03:27.947Z,4.00
2018-04-09T10:05:54.291Z,4.17
2018-04-09T10:08:20.644Z,4.00
2018-04-09T10:10:47.009Z,4.10
2018-04-09T10:13:13.469Z,4.10
2018-04-09T10:15:39.890Z,4.43
2018-04-09T10:18:06.226Z,4.23
2018-04-09T10:20:32.602Z,4.67
2018-04-09T10:22:58.958Z,4.07
2018-04-09T10:25:25.296Z,3.90
2018-04-09T10:27:51.656Z,4.17
2018-04-09T10:30:18.011Z,4.50
2018-04-09T10:32:44.345Z,4.47
2018-04-09T10:35:10.745Z,4.13
2018-04-09T10:37:37.076Z,3.90
2018-04-09T10:40:03.416Z,3.90
2018-04-09T10:42:29.821Z,3.90
2018-04-09T10:44:56.159Z,3.53
2018-04-09T10:47:22.621Z,3.80
2018-04-09T10:49:48.945Z,4.00
2018-04-09T10:52:15.308Z,4.20
2018-04-09T10:54:41.646Z,3.87
2018-04-09T10:57:07.962Z,4.07
2018-04-09T10:59:34.301Z,3.87
2018-04-09T11:02:00.661Z,3.93
2018-04-09T11:04:27.016Z,4.53
2018-04-09T11:06:53.379Z,4.37
2018-04-09T11:09:19.794Z,4.43
2018-04-09T11:11:46.195Z,3.80
2018-04-09T11:14:12.595Z,3.70
2018-04-09T11:16:38.918Z,4.40
2018-04-09T11:19:05.226Z,4.00
2018-04-09T11:21:31.625Z,4.03
2018-04-09T11:23:57.990Z,4.10
2018-04-09T11:26:24.308Z,4.17
2018-04-09T11:28:50.866Z,3.50
2018-04-09T11:31:17.189Z,3.73
2018-04-09T11:33:43.571Z,3.50
2018-04-09T11:36:09.934Z,3.73
2018-04-09T11:38:36.389Z,5.73
2018-04-09T11:41:02.782Z,3.50
2018-04-09T11:43:29.181Z,4.17
2018-04-09T11:45:55.496Z,3.60
2018-04-09T11:48:21.960Z,3.50
2018-04-09T11:50:48.324Z,4.00
2018-04-09T11:53:14.692Z,3.83
2018-04-09T11:55:41.052Z,4.00
2018-04-09T11:58:07.413Z,3.80
2018-04-09T12:00:33.866Z,4.20
2018-04-09T12:03:00.263Z,3.97
2018-04-09T12:05:26.624Z,3.40
2018-04-09T12:07:52.975Z,3.47
2018-04-09T12:10:19.357Z,4.07
2018-04-09T12:12:45.715Z,3.10
2018-04-09T12:15:12.083Z,4.40
2018-04-09T12:17:38.439Z,3.77
2018-04-09T12:20:04.792Z,3.70
2018-04-09T12:22:31.255Z,3.73
2018-04-09T12:24:57.608Z,3.17
2018-04-09T12:27:23.980Z,3.50
2018-04-09T12:29:50.293Z,4.77
2018-04-09T12:32:16.650Z,3.67
2018-04-09T12:34:43.008Z,3.77
2018-04-09T12:37:09.390Z,2.87
2018-04-09T12:39:35.721Z,3.20
2018-04-09T12:42:02.056Z,3.13
2018-04-09T12:44:28.439Z,3.30
2018-04-09T12:46:54.821Z,3.33
2018-04-09T12:49:21.159Z,3.33
2018-04-09T12:51:47.538Z,3.00
2018-04-09T12:54:13.980Z,3.47
2018-04-09T12:56:40.404Z,3.00
2018-04-09T12:59:06.711Z,3.07
2018-04-09T13:01:33.076Z,2.97
2018-04-09T13:03:59.443Z,3.00
2018-04-09T13:06:25.765Z,2.60
2018-04-09T13:08:52.080Z,2.80
2018-04-09T13:11:18.445Z,3.07
2018-04-09T13:13:44.773Z,2.87
2018-04-09T13:16:11.211Z,3.00
2018-04-09T13:18:37.580Z,3.07
2018-04-09T13:21:03.974Z,2.80
2018-04-09T13:23:30.341Z,2.80
2018-04-09T13:25:56.788Z,2.87
2018-04-09T13:28:23.108Z,2.70
2018-04-09T13:30:50.556Z,2.60
2018-04-09T13:33:17.008Z,3.67
2018-04-09T13:35:43.499Z,2.73
2018-04-09T13:38:09.794Z,2.60
2018-04-09T13:40:36.182Z,2.70
2018-04-09T13:43:02.515Z,3.57
2018-04-09T13:45:28.889Z,2.83
2018-04-09T13:47:55.328Z,3.00
2018-04-09T13:50:21.712Z,2.73
2018-04-09T13:52:48.089Z,2.37
2018-04-09T13:55:14.414Z,2.40
2018-04-09T13:57:40.876Z,2.37
2018-04-09T14:00:07.246Z,2.60
2018-04-09T14:02:33.568Z,2.23
2018-04-09T14:04:59.884Z,2.27
2018-04-09T14:07:26.295Z,2.30
2018-04-09T14:09:52.696Z,2.50
2018-04-09T14:12:19.039Z,2.40
2018-04-09T14:14:45.421Z,2.43
2018-04-09T14:17:11.801Z,2.43
2018-04-09T14:19:38.173Z,2.50
2018-04-09T14:22:04.496Z,2.37
2018-04-09T14:24:30.877Z,3.00
2018-04-09T14:26:57.199Z,2.30
2018-04-09T14:29:23.610Z,4.23
2018-04-09T14:31:49.976Z,2.63
2018-04-09T14:34:16.339Z,2.33
2018-04-09T14:36:42.671Z,2.30
2018-04-09T14:39:08.998Z,2.27
2018-04-09T14:41:35.407Z,2.37
2018-04-09T14:44:01.834Z,2.20
2018-04-09T14:46:28.201Z,2.20
2018-04-09T14:48:54.550Z,2.23
2018-04-09T14:51:21.007Z,2.37
2018-04-09T14:53:47.356Z,2.00
2018-04-09T14:56:13.732Z,2.23
2018-04-09T14:58:40.076Z,2.53
2018-04-09T15:01:06.434Z,2.30
2018-04-09T15:03:32.798Z,2.33
2018-04-09T15:05:59.172Z,2.10
2018-04-09T15:08:25.536Z,2.17
2018-04-09T15:10:51.892Z,2.53
2018-04-09T15:13:18.224Z,2.10
2018-04-09T15:15:44.588Z,2.53
2018-04-09T15:18:11.002Z,2.70
2018-04-09T15:20:37.333Z,2.93
2018-04-09T15:23:03.678Z,2.77
2018-04-09T15:25:30.034Z,2.20
2018-04-09T15:27:56.357Z,2.20
2018-04-09T15:30:22.691Z,2.20
2018-04-09T15:32:49.018Z,2.00
2018-04-09T15:35:15.343Z,2.20
2018-04-09T15:37:41.731Z,1.70
2018-04-09T15:40:08.054Z,2.03
2018-04-09T15:42:34.437Z,2.80
2018-04-09T15:45:00.765Z,2.33
2018-04-09T15:47:27.090Z,2.47
2018-04-09T15:49:53.419Z,2.27
2018-04-09T15:52:19.769Z,2.10
2018-04-09T15:54:46.089Z,2.20
2018-04-09T15:57:12.426Z,2.30
2018-04-09T15:59:38.779Z,2.47
2018-04-09T16:02:05.133Z,2.53
2018-04-09T16:04:31.459Z,2.43
2018-04-09T16:06:57.772Z,2.57
2018-04-09T16:09:24.147Z,1.97
2018-04-09T16:11:50.596Z,2.20
2018-04-09T16:14:17.011Z,1.90
2018-04-09T16:16:43.432Z,2.10
2018-04-09T16:19:09.794Z,3.20
2018-04-09T16:21:36.146Z,2.03
2018-04-09T16:24:02.496Z,2.30
2018-04-09T16:26:28.863Z,2.60
2018-04-09T16:28:55.232Z,2.33
2018-04-09T16:31:21.652Z,2.43
2018-04-09T16:33:48.037Z,2.07
2018-04-09T16:36:14.367Z,2.20
2018-04-09T16:38:40.681Z,2.30
2018-04-09T16:41:07.003Z,2.20
2018-04-09T16:43:33.399Z,2.10
2018-04-09T16:45:59.869Z,2.37
2018-04-09T16:48:26.185Z,2.53
2018-04-09T16:50:52.563Z,2.30
2018-04-09T16:53:18.917Z,2.70
2018-04-09T16:55:45.289Z,2.40
2018-04-09T16:58:11.682Z,2.20
2018-04-09T17:00:39.107Z,2.13
2018-04-09T17:03:05.432Z,2.60
2018-04-09T17:05:31.802Z,2.50
2018-04-09T17:07:58.135Z,2.10
2018-04-09T17:10:24.447Z,2.10
2018-04-09T17:12:50.906Z,2.30
2018-04-09T17:15:17.259Z,2.40
2018-04-09T17:17:43.676Z,2.77
2018-04-09T17:20:10.065Z,2.63
2018-04-09T17:22:36.386Z,2.20
2018-04-09T17:25:02.726Z,2.40
2018-04-09T17:27:29.052Z,2.70
2018-04-09T17:29:55.378Z,2.43
2018-04-09T17:32:21.727Z,4.20
2018-04-09T17:34:48.091Z,2.30
2018-04-09T17:37:14.444Z,2.00
2018-04-09T17:39:40.785Z,2.47
2018-04-09T17:42:07.163Z,2.77
2018-04-09T17:44:33.497Z,3.50
2018-04-09T17:46:59.824Z,2.30
2018-04-09T17:49:26.159Z,2.27
2018-04-09T17:51:52.536Z,2.40
2018-04-09T17:54:18.849Z,2.57
2018-04-09T17:56:45.225Z,2.53
2018-04-09T17:59:11.649Z,2.33
2018-04-09T18:01:38.027Z,2.30
2018-04-09T18:04:04.388Z,2.80
2018-04-09T18:06:30.719Z,2.50
2018-04-09T18:08:57.036Z,2.87
2018-04-09T18:11:23.360Z,2.60
2018-04-09T18:13:49.670Z,2.37
2018-04-09T18:16:16.116Z,2.50
2018-04-09T18:18:42.447Z,2.77
2018-04-09T18:21:08.828Z,2.43
2018-04-09T18:23:35.202Z,2.70
2018-04-09T18:26:01.715Z,2.20
2018-04-09T18:28:28.051Z,2.40
2018-04-09T18:30:54.460Z,2.53
2018-04-09T18:33:20.803Z,2.33
2018-04-09T18:35:47.141Z,2.50
2018-04-09T18:38:13.479Z,2.70
2018-04-09T18:40:39.843Z,2.57
2018-04-09T18:43:06.244Z,2.87
2018-04-09T18:45:32.575Z,2.30
2018-04-09T18:47:58.888Z,3.20
2018-04-09T18:50:25.210Z,2.30
2018-04-09T18:52:51.645Z,2.53
2018-04-09T18:55:17.974Z,3.40
2018-04-09T18:57:44.315Z,2.57
2018-04-09T19:00:10.799Z,2.47
2018-04-09T19:02:37.155Z,3.23
2018-04-09T19:05:03.511Z,2.63
2018-04-09T19:07:29.951Z,2.50
2018-04-09T19:09:56.275Z,2.33
2018-04-09T19:12:22.691Z,2.40
2018-04-09T19:14:49.022Z,2.70
2018-04-09T19:17:15.371Z,2.70
2018-04-09T19:19:41.780Z,3.00
2018-04-09T19:22:08.130Z,2.70
2018-04-09T19:24:34.442Z,2.77
2018-04-09T19:27:00.776Z,3.03
2018-04-09T19:29:27.168Z,2.30
2018-04-09T19:31:53.689Z,3.70
2018-04-09T19:34:20.012Z,2.90
2018-04-09T19:36:46.342Z,2.30
2018-04-09T19:39:13.668Z,2.80
2018-04-09T19:44:11.438Z,2.60
2018-04-09T19:46:37.805Z,2.67
2018-04-09T19:49:04.169Z,3.23
2018-04-09T19:51:30.530Z,2.40
2018-04-09T19:53:56.964Z,2.80
2018-04-09T19:56:23.358Z,3.50
2018-04-09T19:58:49.758Z,2.50
2018-04-09T20:01:16.166Z,2.50
2018-04-09T20:03:42.630Z,3.37
2018-04-09T20:06:09.055Z,2.97
2018-04-09T20:08:35.477Z,3.30
2018-04-09T20:11:02.000Z,2.67
2018-04-09T20:13:28.366Z,2.67
2018-04-09T20:15:54.728Z,2.60
2018-04-09T20:18:21.106Z,2.97
2018-04-09T20:20:47.467Z,2.77
2018-04-09T20:23:13.879Z,3.03
2018-04-09T20:25:40.277Z,3.20
2018-04-09T20:28:06.644Z,2.57
2018-04-09T20:30:33.076Z,2.97
2018-04-09T20:32:59.480Z,2.70
2018-04-09T20:35:25.889Z,2.93
2018-04-09T20:37:52.264Z,2.80
2018-04-09T20:40:18.710Z,3.13
2018-04-09T20:42:45.075Z,3.30
2018-04-09T20:45:11.522Z,2.87
2018-04-09T20:47:37.934Z,2.80
2018-04-09T20:50:04.352Z,3.00
2018-04-09T20:52:30.722Z,3.10
2018-04-09T20:54:57.098Z,2.47
2018-04-09T20:57:23.507Z,3.10
2018-04-09T20:59:49.874Z,2.70
2018-04-09T21:02:16.262Z,2.97
2018-04-09T21:04:42.723Z,3.10
2018-04-09T21:07:09.106Z,2.97
2018-04-09T21:09:35.513Z,2.80
2018-04-09T21:12:01.897Z,2.80
2018-04-09T21:14:28.264Z,3.20
2018-04-09T21:16:54.630Z,3.37
2018-04-09T21:19:21.144Z,3.03
2018-04-09T21:21:47.595Z,2.90
2018-04-09T21:24:13.979Z,3.00
2018-04-09T21:26:40.430Z,3.13
2018-04-09T21:29:06.848Z,3.00
2018-04-09T21:31:33.282Z,3.30
2018-04-09T21:33:59.683Z,2.90
2018-04-09T21:36:26.079Z,2.63
2018-04-09T21:38:52.514Z,3.40
2018-04-09T21:41:18.880Z,3.07
2018-04-09T21:43:45.273Z,2.90
2018-04-09T21:46:11.702Z,3.20
2018-04-09T21:48:38.082Z,3.00
2018-04-09T21:51:04.551Z,3.03
2018-04-09T21:53:31.085Z,2.70
2018-04-09T21:55:57.458Z,3.40
2018-04-09T21:58:23.882Z,2.90
2018-04-09T22:00:50.322Z,2.90
2018-04-09T22:03:16.822Z,2.90
2018-04-09T22:05:43.263Z,2.70
2018-04-09T22:08:09.743Z,3.17
2018-04-09T22:10:36.157Z,3.37
2018-04-09T22:13:02.615Z,2.60
2018-04-09T22:15:29.041Z,2.73
2018-04-09T22:17:55.436Z,3.20
2018-04-09T22:20:21.812Z,2.97
2018-04-09T22:22:48.196Z,3.00
2018-04-09T22:25:14.618Z,3.33
2018-04-09T22:27:41.129Z,2.83
2018-04-09T22:30:07.537Z,3.00
2018-04-09T22:32:33.919Z,2.77
2018-04-09T22:35:00.352Z,3.97
2018-04-09T22:37:26.763Z,2.73
2018-04-09T22:39:53.258Z,2.70
2018-04-09T22:42:19.903Z,2.83
2018-04-09T22:44:46.386Z,5.60
2018-04-09T22:47:12.746Z,2.60
2018-04-09T22:49:39.194Z,2.80
2018-04-09T22:52:05.570Z,3.47
2018-04-09T22:54:32.248Z,3.10
2018-04-09T22:56:58.617Z,2.87
2018-04-09T22:59:24.982Z,3.23
2018-04-09T23:01:51.396Z,3.30
2018-04-09T23:04:17.841Z,3.10
2018-04-09T23:06:44.220Z,3.00
2018-04-09T23:09:10.603Z,3.00
2018-04-09T23:11:37.021Z,3.17
2018-04-09T23:14:03.395Z,2.83
2018-04-09T23:16:29.815Z,2.93
2018-04-09T23:18:56.194Z,2.80
2018-04-09T23:21:22.571Z,2.80
2018-04-09T23:23:48.959Z,5.77
2018-04-09T23:26:15.434Z,3.30
2018-04-09T23:28:41.915Z,3.20
2018-04-09T23:31:08.281Z,2.73
2018-04-09T23:33:34.657Z,3.50
2018-04-09T23:36:00.978Z,2.80
2018-04-09T23:38:27.347Z,3.07
2018-04-09T23:40:53.714Z,3.30
2018-04-09T23:43:20.041Z,3.03
2018-04-09T23:45:46.501Z,2.80
2018-04-09T23:48:12.834Z,3.17
2018-04-09T23:50:39.245Z,2.87
2018-04-09T23:53:05.604Z,2.73
2018-04-09T23:55:31.972Z,2.60
2018-04-09T23:57:58.327Z,2.73
